sensor_id;sensor_type;location;lat;lon;timestamp;temperature;humidity
46490;DHT22;32204;49.160;8.580;2023-05-28T00:00:07;15.60;1.00
46490;DHT22;32204;49.160;8.580;2023-05-28T00:02:34;15.40;1.00
46490;DHT22;32204;49.160;8.580;2023-05-28T00:04:59;15.40;27.40
46490;DHT22;32204;49.160;8.580;2023-05-28T00:07:26;15.50;99.90
46490;DHT22;32204;49.160;8.580;2023-05-28T00:09:57;15.50;82.70
46490;DHT22;32204;49.160;8.580;2023-05-28T00:12:23;15.20;99.90
46490;DHT22;32204;49.160;8.580;2023-05-28T00:14:49;15.10;99.90
46490;DHT22;32204;49.160;8.580;2023-05-28T00:17:16;14.90;99.90
46490;DHT22;32204;49.160;8.580;2023-05-28T00:19:42;14.70;1.00
46490;DHT22;32204;49.160;8.580;2023-05-28T00:22:08;14.60;1.00
46490;DHT22;32204;49.160;8.580;2023-05-28T00:24:35;14.60;99.90
46490;DHT22;32204;49.160;8.580;2023-05-28T00:27:01;14.60;99.90
46490;DHT22;32204;49.160;8.580;2023-05-28T00:29:26;14.50;1.00
46490;DHT22;32204;49.160;8.580;2023-05-28T00:31:53;14.40;1.00
46490;DHT22;32204;49.160;8.580;2023-05-28T00:34:24;14.40;1.00
46490;DHT22;32204;49.160;8.580;2023-05-28T00:36:51;14.60;1.00
46490;DHT22;32204;49.160;8.580;2023-05-28T00:39:17;14.50;1.00
46490;DHT22;32204;49.160;8.580;2023-05-28T00:41:43;14.50;1.00
46490;DHT22;32204;49.160;8.580;2023-05-28T00:44:42;14.50;1.00
46490;DHT22;32204;49.160;8.580;2023-05-28T00:47:02;14.60;1.00
46490;DHT22;32204;49.160;8.580;2023-05-28T00:49:28;14.70;1.00
46490;DHT22;32204;49.160;8.580;2023-05-28T00:51:54;14.50;1.00
46490;DHT22;32204;49.160;8.580;2023-05-28T00:54:24;14.40;1.00
46490;DHT22;32204;49.160;8.580;2023-05-28T00:56:52;14.30;23.20
46490;DHT22;32204;49.160;8.580;2023-05-28T00:59:18;14.40;68.70
46490;DHT22;32204;49.160;8.580;2023-05-28T01:01:44;14.50;1.00
46490;DHT22;32204;49.160;8.580;2023-05-28T01:04:10;14.70;1.00
46490;DHT22;32204;49.160;8.580;2023-05-28T01:06:36;14.80;1.00
46490;DHT22;32204;49.160;8.580;2023-05-28T01:09:05;14.80;99.90
46490;DHT22;32204;49.160;8.580;2023-05-28T01:11:32;14.70;99.90
46490;DHT22;32204;49.160;8.580;2023-05-28T01:13:59;14.40;1.00
46490;DHT22;32204;49.160;8.580;2023-05-28T01:16:25;14.20;18.50
46490;DHT22;32204;49.160;8.580;2023-05-28T01:18:54;14.00;99.90
46490;DHT22;32204;49.160;8.580;2023-05-28T01:21:24;13.90;99.90
46490;DHT22;32204;49.160;8.580;2023-05-28T01:23:53;14.00;99.90
46490;DHT22;32204;49.160;8.580;2023-05-28T01:26:20;14.10;99.90
46490;DHT22;32204;49.160;8.580;2023-05-28T01:28:47;14.30;99.90
46490;DHT22;32204;49.160;8.580;2023-05-28T01:31:14;14.30;93.10
46490;DHT22;32204;49.160;8.580;2023-05-28T01:33:41;14.30;49.60
46490;DHT22;32204;49.160;8.580;2023-05-28T01:38:41;14.40;1.00
46490;DHT22;32204;49.160;8.580;2023-05-28T01:41:09;14.20;1.00
46490;DHT22;32204;49.160;8.580;2023-05-28T01:43:35;14.30;1.00
46490;DHT22;32204;49.160;8.580;2023-05-28T01:46:01;14.20;1.00
46490;DHT22;32204;49.160;8.580;2023-05-28T01:48:28;14.20;1.00
46490;DHT22;32204;49.160;8.580;2023-05-28T01:50:55;14.00;1.00
46490;DHT22;32204;49.160;8.580;2023-05-28T01:53:20;13.80;1.00
46490;DHT22;32204;49.160;8.580;2023-05-28T01:55:46;13.80;92.60
46490;DHT22;32204;49.160;8.580;2023-05-28T01:58:12;13.90;99.90
46490;DHT22;32204;49.160;8.580;2023-05-28T02:00:59;13.90;61.90
46490;DHT22;32204;49.160;8.580;2023-05-28T02:03:26;14.10;1.00
46490;DHT22;32204;49.160;8.580;2023-05-28T02:05:51;14.00;1.00
46490;DHT22;32204;49.160;8.580;2023-05-28T02:08:17;13.80;1.00
46490;DHT22;32204;49.160;8.580;2023-05-28T02:10:43;13.70;99.90
46490;DHT22;32204;49.160;8.580;2023-05-28T02:13:08;13.70;68.20
46490;DHT22;32204;49.160;8.580;2023-05-28T02:15:34;13.60;99.90
46490;DHT22;32204;49.160;8.580;2023-05-28T02:18:00;13.50;99.90
46490;DHT22;32204;49.160;8.580;2023-05-28T02:20:26;13.50;99.90
46490;DHT22;32204;49.160;8.580;2023-05-28T02:22:52;13.40;99.90
46490;DHT22;32204;49.160;8.580;2023-05-28T02:25:17;13.40;99.90
46490;DHT22;32204;49.160;8.580;2023-05-28T02:27:43;13.40;99.90
46490;DHT22;32204;49.160;8.580;2023-05-28T02:30:09;13.50;99.90
46490;DHT22;32204;49.160;8.580;2023-05-28T02:32:35;13.50;99.90
46490;DHT22;32204;49.160;8.580;2023-05-28T02:35:02;13.60;99.90
46490;DHT22;32204;49.160;8.580;2023-05-28T02:37:27;13.50;17.20
46490;DHT22;32204;49.160;8.580;2023-05-28T02:39:53;13.30;99.90
46490;DHT22;32204;49.160;8.580;2023-05-28T02:42:18;13.20;99.90
46490;DHT22;32204;49.160;8.580;2023-05-28T02:44:44;13.10;99.90
46490;DHT22;32204;49.160;8.580;2023-05-28T02:47:10;13.10;99.90
46490;DHT22;32204;49.160;8.580;2023-05-28T02:49:35;13.30;99.90
46490;DHT22;32204;49.160;8.580;2023-05-28T02:52:01;13.40;99.90
46490;DHT22;32204;49.160;8.580;2023-05-28T02:54:26;13.40;99.90
46490;DHT22;32204;49.160;8.580;2023-05-28T02:56:52;13.20;99.90
46490;DHT22;32204;49.160;8.580;2023-05-28T02:59:17;13.00;99.90
46490;DHT22;32204;49.160;8.580;2023-05-28T03:01:43;12.90;99.90
46490;DHT22;32204;49.160;8.580;2023-05-28T03:04:09;12.70;1.00
46490;DHT22;32204;49.160;8.580;2023-05-28T03:06:34;12.70;1.00
46490;DHT22;32204;49.160;8.580;2023-05-28T03:09:02;12.80;1.00
46490;DHT22;32204;49.160;8.580;2023-05-28T03:11:51;12.80;1.00
46490;DHT22;32204;49.160;8.580;2023-05-28T03:14:17;12.80;1.00
46490;DHT22;32204;49.160;8.580;2023-05-28T03:16:43;12.70;1.00
46490;DHT22;32204;49.160;8.580;2023-05-28T03:19:09;12.60;1.00
46490;DHT22;32204;49.160;8.580;2023-05-28T03:21:35;12.60;1.00
46490;DHT22;32204;49.160;8.580;2023-05-28T03:24:01;12.50;1.00
46490;DHT22;32204;49.160;8.580;2023-05-28T03:26:26;12.50;1.00
46490;DHT22;32204;49.160;8.580;2023-05-28T03:28:52;12.40;1.00
46490;DHT22;32204;49.160;8.580;2023-05-28T03:31:19;12.50;1.00
46490;DHT22;32204;49.160;8.580;2023-05-28T03:33:45;12.50;1.00
46490;DHT22;32204;49.160;8.580;2023-05-28T03:36:11;12.50;1.00
46490;DHT22;32204;49.160;8.580;2023-05-28T03:38:37;12.40;1.00
46490;DHT22;32204;49.160;8.580;2023-05-28T03:41:02;12.50;1.00
46490;DHT22;32204;49.160;8.580;2023-05-28T03:43:29;12.40;99.90
46490;DHT22;32204;49.160;8.580;2023-05-28T03:45:55;12.40;1.00
46490;DHT22;32204;49.160;8.580;2023-05-28T03:48:21;12.50;2.10
46490;DHT22;32204;49.160;8.580;2023-05-28T03:50:46;12.70;1.00
46490;DHT22;32204;49.160;8.580;2023-05-28T03:53:12;12.60;1.00
46490;DHT22;32204;49.160;8.580;2023-05-28T03:55:37;12.60;1.00
46490;DHT22;32204;49.160;8.580;2023-05-28T03:58:03;12.70;1.00
46490;DHT22;32204;49.160;8.580;2023-05-28T04:00:29;12.80;99.90
46490;DHT22;32204;49.160;8.580;2023-05-28T04:02:55;12.70;99.90
46490;DHT22;32204;49.160;8.580;2023-05-28T04:05:20;12.60;99.90
46490;DHT22;32204;49.160;8.580;2023-05-28T04:07:46;12.50;1.00
46490;DHT22;32204;49.160;8.580;2023-05-28T04:10:12;12.40;1.80
46490;DHT22;32204;49.160;8.580;2023-05-28T04:12:37;12.40;1.00
46490;DHT22;32204;49.160;8.580;2023-05-28T04:15:03;12.60;1.00
46490;DHT22;32204;49.160;8.580;2023-05-28T04:17:29;12.80;1.00
46490;DHT22;32204;49.160;8.580;2023-05-28T04:19:55;13.00;99.90
46490;DHT22;32204;49.160;8.580;2023-05-28T04:22:20;13.00;99.90
46490;DHT22;32204;49.160;8.580;2023-05-28T04:24:52;12.90;99.90
46490;DHT22;32204;49.160;8.580;2023-05-28T04:27:20;13.00;99.90
46490;DHT22;32204;49.160;8.580;2023-05-28T04:29:46;13.00;99.90
46490;DHT22;32204;49.160;8.580;2023-05-28T04:32:13;12.90;99.90
46490;DHT22;32204;49.160;8.580;2023-05-28T04:34:39;12.90;99.90
46490;DHT22;32204;49.160;8.580;2023-05-28T04:37:06;13.00;1.00
46490;DHT22;32204;49.160;8.580;2023-05-28T04:39:33;13.10;99.90
46490;DHT22;32204;49.160;8.580;2023-05-28T04:41:58;13.10;99.90
46490;DHT22;32204;49.160;8.580;2023-05-28T04:44:25;13.10;99.90
46490;DHT22;32204;49.160;8.580;2023-05-28T04:46:51;13.30;99.90
46490;DHT22;32204;49.160;8.580;2023-05-28T04:49:17;13.50;99.90
46490;DHT22;32204;49.160;8.580;2023-05-28T04:51:43;14.40;1.00
46490;DHT22;32204;49.160;8.580;2023-05-28T04:54:08;15.10;99.90
46490;DHT22;32204;49.160;8.580;2023-05-28T04:56:37;15.80;99.90
46490;DHT22;32204;49.160;8.580;2023-05-28T04:59:03;16.60;11.70
46490;DHT22;32204;49.160;8.580;2023-05-28T05:01:31;17.30;1.00
46490;DHT22;32204;49.160;8.580;2023-05-28T05:04:00;17.80;1.00
46490;DHT22;32204;49.160;8.580;2023-05-28T05:06:27;18.00;1.00
46490;DHT22;32204;49.160;8.580;2023-05-28T05:08:52;18.40;99.90
46490;DHT22;32204;49.160;8.580;2023-05-28T05:11:19;18.70;99.90
46490;DHT22;32204;49.160;8.580;2023-05-28T05:13:45;18.90;99.90
46490;DHT22;32204;49.160;8.580;2023-05-28T05:16:11;19.40;99.90
46490;DHT22;32204;49.160;8.580;2023-05-28T05:18:37;20.00;99.90
46490;DHT22;32204;49.160;8.580;2023-05-28T05:21:13;20.50;99.90
46490;DHT22;32204;49.160;8.580;2023-05-28T05:23:39;20.80;99.90
46490;DHT22;32204;49.160;8.580;2023-05-28T05:26:09;21.10;99.90
46490;DHT22;32204;49.160;8.580;2023-05-28T05:28:35;21.50;99.90
46490;DHT22;32204;49.160;8.580;2023-05-28T05:31:01;21.80;99.90
46490;DHT22;32204;49.160;8.580;2023-05-28T05:33:27;22.20;99.90
46490;DHT22;32204;49.160;8.580;2023-05-28T05:35:52;22.80;99.90
46490;DHT22;32204;49.160;8.580;2023-05-28T05:38:18;23.40;99.90
46490;DHT22;32204;49.160;8.580;2023-05-28T05:40:44;23.70;99.90
46490;DHT22;32204;49.160;8.580;2023-05-28T05:43:11;23.80;99.90
46490;DHT22;32204;49.160;8.580;2023-05-28T05:45:37;23.80;99.90
46490;DHT22;32204;49.160;8.580;2023-05-28T05:48:03;23.80;99.90
46490;DHT22;32204;49.160;8.580;2023-05-28T05:50:28;23.60;63.50
46490;DHT22;32204;49.160;8.580;2023-05-28T05:52:54;23.40;46.20
46490;DHT22;32204;49.160;8.580;2023-05-28T05:55:20;23.70;43.80
46490;DHT22;32204;49.160;8.580;2023-05-28T05:57:45;24.10;30.20
46490;DHT22;32204;49.160;8.580;2023-05-28T06:00:12;24.70;27.60
46490;DHT22;32204;49.160;8.580;2023-05-28T06:02:38;24.90;22.50
46490;DHT22;32204;49.160;8.580;2023-05-28T06:05:04;24.40;17.70
46490;DHT22;32204;49.160;8.580;2023-05-28T06:07:31;24.00;20.60
46490;DHT22;32204;49.160;8.580;2023-05-28T06:09:57;24.00;22.00
46490;DHT22;32204;49.160;8.580;2023-05-28T06:12:22;24.70;19.40
46490;DHT22;32204;49.160;8.580;2023-05-28T06:14:48;24.80;12.90
46490;DHT22;32204;49.160;8.580;2023-05-28T06:17:14;24.10;12.00
46490;DHT22;32204;49.160;8.580;2023-05-28T06:19:41;23.70;11.30
46490;DHT22;32204;49.160;8.580;2023-05-28T06:22:06;23.60;12.90
46490;DHT22;32204;49.160;8.580;2023-05-28T06:24:34;23.90;15.60
46490;DHT22;32204;49.160;8.580;2023-05-28T06:27:01;24.60;14.70
46490;DHT22;32204;49.160;8.580;2023-05-28T06:29:28;25.50;9.10
46490;DHT22;32204;49.160;8.580;2023-05-28T06:31:54;24.50;2.50
46490;DHT22;32204;49.160;8.580;2023-05-28T06:34:20;24.20;5.30
46490;DHT22;32204;49.160;8.580;2023-05-28T06:36:45;24.40;6.10
46490;DHT22;32204;49.160;8.580;2023-05-28T06:39:11;23.50;15.40
46490;DHT22;32204;49.160;8.580;2023-05-28T06:41:37;23.90;8.80
46490;DHT22;32204;49.160;8.580;2023-05-28T06:44:02;24.10;9.80
46490;DHT22;32204;49.160;8.580;2023-05-28T06:46:28;24.70;8.20
46490;DHT22;32204;49.160;8.580;2023-05-28T06:48:54;24.50;5.80
46490;DHT22;32204;49.160;8.580;2023-05-28T06:51:20;23.80;8.20
46490;DHT22;32204;49.160;8.580;2023-05-28T06:53:45;22.50;12.20
46490;DHT22;32204;49.160;8.580;2023-05-28T06:56:12;22.00;20.90
46490;DHT22;32204;49.160;8.580;2023-05-28T06:58:38;21.60;24.10
46490;DHT22;32204;49.160;8.580;2023-05-28T07:01:03;21.10;25.70
46490;DHT22;32204;49.160;8.580;2023-05-28T07:03:30;20.60;36.70
46490;DHT22;32204;49.160;8.580;2023-05-28T07:05:56;20.30;47.40
46490;DHT22;32204;49.160;8.580;2023-05-28T07:08:21;20.50;54.60
46490;DHT22;32204;49.160;8.580;2023-05-28T07:10:47;20.50;52.70
46490;DHT22;32204;49.160;8.580;2023-05-28T07:13:12;20.50;61.20
46490;DHT22;32204;49.160;8.580;2023-05-28T07:15:38;20.30;76.50
46490;DHT22;32204;49.160;8.580;2023-05-28T07:18:04;20.30;83.30
46490;DHT22;32204;49.160;8.580;2023-05-28T07:20:29;20.40;71.90
46490;DHT22;32204;49.160;8.580;2023-05-28T07:22:56;20.20;74.10
46490;DHT22;32204;49.160;8.580;2023-05-28T07:25:22;20.50;70.90
46490;DHT22;32204;49.160;8.580;2023-05-28T07:27:47;20.30;81.90
46490;DHT22;32204;49.160;8.580;2023-05-28T07:30:13;20.20;86.90
46490;DHT22;32204;49.160;8.580;2023-05-28T07:32:39;20.40;70.30
46490;DHT22;32204;49.160;8.580;2023-05-28T07:35:05;20.20;61.70
46490;DHT22;32204;49.160;8.580;2023-05-28T07:37:31;19.90;71.00
46490;DHT22;32204;49.160;8.580;2023-05-28T07:39:57;20.00;81.20
46490;DHT22;32204;49.160;8.580;2023-05-28T07:42:23;20.20;84.50
46490;DHT22;32204;49.160;8.580;2023-05-28T07:44:49;20.40;79.50
46490;DHT22;32204;49.160;8.580;2023-05-28T07:47:14;20.50;81.60
46490;DHT22;32204;49.160;8.580;2023-05-28T07:49:41;20.70;75.80
46490;DHT22;32204;49.160;8.580;2023-05-28T07:52:06;20.50;69.40
46490;DHT22;32204;49.160;8.580;2023-05-28T07:54:33;20.20;68.60
46490;DHT22;32204;49.160;8.580;2023-05-28T07:56:59;20.50;80.20
46490;DHT22;32204;49.160;8.580;2023-05-28T07:59:25;20.30;67.10
46490;DHT22;32204;49.160;8.580;2023-05-28T08:01:52;20.20;70.60
46490;DHT22;32204;49.160;8.580;2023-05-28T08:04:18;20.50;69.30
46490;DHT22;32204;49.160;8.580;2023-05-28T08:06:43;20.80;59.50
46490;DHT22;32204;49.160;8.580;2023-05-28T08:09:09;21.30;60.50
46490;DHT22;32204;49.160;8.580;2023-05-28T08:11:35;21.20;47.90
46490;DHT22;32204;49.160;8.580;2023-05-28T08:14:00;21.00;53.10
46490;DHT22;32204;49.160;8.580;2023-05-28T08:16:26;21.00;51.20
46490;DHT22;32204;49.160;8.580;2023-05-28T08:18:52;21.00;56.20
46490;DHT22;32204;49.160;8.580;2023-05-28T08:21:17;21.00;49.70
46490;DHT22;32204;49.160;8.580;2023-05-28T08:23:43;21.20;49.40
46490;DHT22;32204;49.160;8.580;2023-05-28T08:26:09;21.60;49.90
46490;DHT22;32204;49.160;8.580;2023-05-28T08:28:35;21.50;42.50
46490;DHT22;32204;49.160;8.580;2023-05-28T08:31:01;21.70;37.70
46490;DHT22;32204;49.160;8.580;2023-05-28T08:33:26;22.00;30.90
46490;DHT22;32204;49.160;8.580;2023-05-28T08:35:52;21.90;34.30
46490;DHT22;32204;49.160;8.580;2023-05-28T08:38:18;21.60;29.60
46490;DHT22;32204;49.160;8.580;2023-05-28T08:40:49;21.80;33.90
46490;DHT22;32204;49.160;8.580;2023-05-28T08:43:16;21.70;29.70
46490;DHT22;32204;49.160;8.580;2023-05-28T08:45:41;22.00;29.90
46490;DHT22;32204;49.160;8.580;2023-05-28T08:48:07;21.90;27.80
46490;DHT22;32204;49.160;8.580;2023-05-28T08:50:37;21.70;29.40
46490;DHT22;32204;49.160;8.580;2023-05-28T08:53:08;21.80;27.70
46490;DHT22;32204;49.160;8.580;2023-05-28T08:55:36;21.80;29.40
46490;DHT22;32204;49.160;8.580;2023-05-28T08:58:03;22.30;26.40
46490;DHT22;32204;49.160;8.580;2023-05-28T09:00:29;22.30;21.50
46490;DHT22;32204;49.160;8.580;2023-05-28T09:02:55;22.20;21.30
46490;DHT22;32204;49.160;8.580;2023-05-28T09:05:21;22.20;22.00
46490;DHT22;32204;49.160;8.580;2023-05-28T09:07:47;22.10;23.60
46490;DHT22;32204;49.160;8.580;2023-05-28T09:10:13;22.20;27.90
46490;DHT22;32204;49.160;8.580;2023-05-28T09:12:39;22.40;24.10
46490;DHT22;32204;49.160;8.580;2023-05-28T09:15:07;22.40;25.00
46490;DHT22;32204;49.160;8.580;2023-05-28T09:17:37;22.50;22.40
46490;DHT22;32204;49.160;8.580;2023-05-28T09:20:13;22.80;26.80
46490;DHT22;32204;49.160;8.580;2023-05-28T09:22:39;23.10;22.50
46490;DHT22;32204;49.160;8.580;2023-05-28T09:25:06;22.90;18.60
46490;DHT22;32204;49.160;8.580;2023-05-28T09:27:32;22.90;14.80
46490;DHT22;32204;49.160;8.580;2023-05-28T09:30:06;23.00;12.10
46490;DHT22;32204;49.160;8.580;2023-05-28T09:32:35;23.10;11.30
46490;DHT22;32204;49.160;8.580;2023-05-28T09:35:05;22.70;11.40
46490;DHT22;32204;49.160;8.580;2023-05-28T09:37:30;22.80;13.50
46490;DHT22;32204;49.160;8.580;2023-05-28T09:40:07;22.90;9.90
46490;DHT22;32204;49.160;8.580;2023-05-28T09:42:38;23.30;9.70
46490;DHT22;32204;49.160;8.580;2023-05-28T09:45:05;23.40;7.10
46490;DHT22;32204;49.160;8.580;2023-05-28T09:47:31;23.60;5.50
46490;DHT22;32204;49.160;8.580;2023-05-28T09:49:56;23.50;8.00
46490;DHT22;32204;49.160;8.580;2023-05-28T09:52:22;23.50;13.90
46490;DHT22;32204;49.160;8.580;2023-05-28T09:54:53;23.70;5.30
46490;DHT22;32204;49.160;8.580;2023-05-28T09:57:23;23.70;1.00
46490;DHT22;32204;49.160;8.580;2023-05-28T09:59:55;23.50;1.00
46490;DHT22;32204;49.160;8.580;2023-05-28T10:04:53;23.50;1.00
46490;DHT22;32204;49.160;8.580;2023-05-28T10:07:25;23.70;1.00
46490;DHT22;32204;49.160;8.580;2023-05-28T10:09:53;23.80;1.00
46490;DHT22;32204;49.160;8.580;2023-05-28T10:12:22;23.60;1.00
46490;DHT22;32204;49.160;8.580;2023-05-28T10:14:49;23.60;1.00
46490;DHT22;32204;49.160;8.580;2023-05-28T10:17:16;23.70;1.00
46490;DHT22;32204;49.160;8.580;2023-05-28T10:19:44;23.80;1.00
46490;DHT22;32204;49.160;8.580;2023-05-28T10:22:10;23.80;1.00
46490;DHT22;32204;49.160;8.580;2023-05-28T10:24:37;24.00;1.00
46490;DHT22;32204;49.160;8.580;2023-05-28T10:27:06;24.30;1.00
46490;DHT22;32204;49.160;8.580;2023-05-28T10:29:43;24.20;1.00
46490;DHT22;32204;49.160;8.580;2023-05-28T10:32:09;24.10;1.00
46490;DHT22;32204;49.160;8.580;2023-05-28T10:34:36;24.30;1.00
46490;DHT22;32204;49.160;8.580;2023-05-28T10:37:08;24.40;1.00
46490;DHT22;32204;49.160;8.580;2023-05-28T10:39:42;24.50;1.00
46490;DHT22;32204;49.160;8.580;2023-05-28T10:42:09;24.60;1.00
46490;DHT22;32204;49.160;8.580;2023-05-28T10:44:49;24.60;1.00
46490;DHT22;32204;49.160;8.580;2023-05-28T10:47:15;24.60;1.00
46490;DHT22;32204;49.160;8.580;2023-05-28T10:50:16;24.50;1.00
46490;DHT22;32204;49.160;8.580;2023-05-28T10:52:42;24.50;1.00
46490;DHT22;32204;49.160;8.580;2023-05-28T10:55:12;24.90;1.00
46490;DHT22;32204;49.160;8.580;2023-05-28T10:57:45;24.70;1.00
46490;DHT22;32204;49.160;8.580;2023-05-28T11:00:12;24.60;1.00
46490;DHT22;32204;49.160;8.580;2023-05-28T11:02:44;24.70;1.00
46490;DHT22;32204;49.160;8.580;2023-05-28T11:05:12;24.90;1.00
46490;DHT22;32204;49.160;8.580;2023-05-28T11:07:39;25.00;1.00
46490;DHT22;32204;49.160;8.580;2023-05-28T11:10:08;25.00;1.00
46490;DHT22;32204;49.160;8.580;2023-05-28T11:12:35;25.00;1.00
46490;DHT22;32204;49.160;8.580;2023-05-28T11:15:01;25.20;1.00
46490;DHT22;32204;49.160;8.580;2023-05-28T11:17:27;25.20;1.00
46490;DHT22;32204;49.160;8.580;2023-05-28T11:19:53;25.20;1.00
46490;DHT22;32204;49.160;8.580;2023-05-28T11:22:20;25.00;1.00
46490;DHT22;32204;49.160;8.580;2023-05-28T11:25:04;25.30;1.00
46490;DHT22;32204;49.160;8.580;2023-05-28T11:27:32;25.40;1.00
46490;DHT22;32204;49.160;8.580;2023-05-28T11:29:59;25.40;1.00
46490;DHT22;32204;49.160;8.580;2023-05-28T11:32:26;25.50;1.00
46490;DHT22;32204;49.160;8.580;2023-05-28T11:34:53;25.70;1.00
46490;DHT22;32204;49.160;8.580;2023-05-28T11:37:33;25.70;1.00
46490;DHT22;32204;49.160;8.580;2023-05-28T11:40:01;25.60;1.00
46490;DHT22;32204;49.160;8.580;2023-05-28T11:42:28;25.40;1.00
46490;DHT22;32204;49.160;8.580;2023-05-28T11:44:54;25.30;1.00
46490;DHT22;32204;49.160;8.580;2023-05-28T11:47:20;25.30;1.00
46490;DHT22;32204;49.160;8.580;2023-05-28T11:49:48;25.30;1.00
46490;DHT22;32204;49.160;8.580;2023-05-28T11:52:15;25.20;1.00
46490;DHT22;32204;49.160;8.580;2023-05-28T11:54:43;25.20;1.00
46490;DHT22;32204;49.160;8.580;2023-05-28T11:57:09;25.10;1.00
46490;DHT22;32204;49.160;8.580;2023-05-28T11:59:35;25.20;1.00
46490;DHT22;32204;49.160;8.580;2023-05-28T12:02:15;25.60;1.00
46490;DHT22;32204;49.160;8.580;2023-05-28T12:04:58;25.70;1.00
46490;DHT22;32204;49.160;8.580;2023-05-28T12:07:34;25.90;1.00
46490;DHT22;32204;49.160;8.580;2023-05-28T12:10:08;25.90;1.00
46490;DHT22;32204;49.160;8.580;2023-05-28T12:12:37;25.80;1.00
46490;DHT22;32204;49.160;8.580;2023-05-28T12:15:05;25.60;1.00
46490;DHT22;32204;49.160;8.580;2023-05-28T12:17:36;25.70;1.00
46490;DHT22;32204;49.160;8.580;2023-05-28T12:20:51;25.80;1.00
46490;DHT22;32204;49.160;8.580;2023-05-28T12:23:08;25.60;1.00
46490;DHT22;32204;49.160;8.580;2023-05-28T12:28:09;25.40;1.00
46490;DHT22;32204;49.160;8.580;2023-05-28T12:30:35;25.60;1.00
46490;DHT22;32204;49.160;8.580;2023-05-28T12:33:01;25.70;1.00
46490;DHT22;32204;49.160;8.580;2023-05-28T12:35:27;25.80;1.00
46490;DHT22;32204;49.160;8.580;2023-05-28T12:37:53;25.70;1.00
46490;DHT22;32204;49.160;8.580;2023-05-28T12:40:18;25.80;1.00
46490;DHT22;32204;49.160;8.580;2023-05-28T12:42:44;26.10;1.00
46490;DHT22;32204;49.160;8.580;2023-05-28T12:45:10;26.00;1.00
46490;DHT22;32204;49.160;8.580;2023-05-28T12:47:35;26.00;1.00
46490;DHT22;32204;49.160;8.580;2023-05-28T12:50:01;25.90;1.00
46490;DHT22;32204;49.160;8.580;2023-05-28T12:52:27;25.90;1.00
46490;DHT22;32204;49.160;8.580;2023-05-28T12:54:53;25.90;1.00
46490;DHT22;32204;49.160;8.580;2023-05-28T12:57:19;26.10;1.00
46490;DHT22;32204;49.160;8.580;2023-05-28T12:59:44;26.10;1.00
46490;DHT22;32204;49.160;8.580;2023-05-28T13:02:10;26.10;1.00
46490;DHT22;32204;49.160;8.580;2023-05-28T13:04:36;26.20;1.00
46490;DHT22;32204;49.160;8.580;2023-05-28T13:07:01;26.20;1.00
46490;DHT22;32204;49.160;8.580;2023-05-28T13:09:27;25.90;1.00
46490;DHT22;32204;49.160;8.580;2023-05-28T13:11:52;26.00;1.00
46490;DHT22;32204;49.160;8.580;2023-05-28T13:14:18;26.40;1.00
46490;DHT22;32204;49.160;8.580;2023-05-28T13:16:44;26.20;1.00
46490;DHT22;32204;49.160;8.580;2023-05-28T13:19:09;26.30;1.00
46490;DHT22;32204;49.160;8.580;2023-05-28T13:21:35;26.50;1.00
46490;DHT22;32204;49.160;8.580;2023-05-28T13:24:02;26.40;1.00
46490;DHT22;32204;49.160;8.580;2023-05-28T13:26:29;26.30;1.00
46490;DHT22;32204;49.160;8.580;2023-05-28T13:28:55;26.30;1.00
46490;DHT22;32204;49.160;8.580;2023-05-28T13:31:21;26.20;1.00
46490;DHT22;32204;49.160;8.580;2023-05-28T13:33:46;26.10;1.00
46490;DHT22;32204;49.160;8.580;2023-05-28T13:36:12;26.10;1.00
46490;DHT22;32204;49.160;8.580;2023-05-28T13:38:41;26.00;1.00
46490;DHT22;32204;49.160;8.580;2023-05-28T13:41:07;26.10;1.00
46490;DHT22;32204;49.160;8.580;2023-05-28T13:43:32;26.20;1.00
46490;DHT22;32204;49.160;8.580;2023-05-28T13:45:58;26.50;1.00
46490;DHT22;32204;49.160;8.580;2023-05-28T13:48:25;26.40;1.00
46490;DHT22;32204;49.160;8.580;2023-05-28T13:50:50;26.30;1.00
46490;DHT22;32204;49.160;8.580;2023-05-28T13:53:16;26.20;1.00
46490;DHT22;32204;49.160;8.580;2023-05-28T13:55:42;26.40;1.00
46490;DHT22;32204;49.160;8.580;2023-05-28T13:58:10;26.50;1.00
46490;DHT22;32204;49.160;8.580;2023-05-28T14:00:36;26.60;1.00
46490;DHT22;32204;49.160;8.580;2023-05-28T14:03:03;26.70;1.00
46490;DHT22;32204;49.160;8.580;2023-05-28T14:05:29;26.90;1.00
46490;DHT22;32204;49.160;8.580;2023-05-28T14:07:54;26.90;1.00
46490;DHT22;32204;49.160;8.580;2023-05-28T14:10:23;26.90;1.00
46490;DHT22;32204;49.160;8.580;2023-05-28T14:12:53;27.00;1.00
46490;DHT22;32204;49.160;8.580;2023-05-28T14:15:19;26.80;1.00
46490;DHT22;32204;49.160;8.580;2023-05-28T14:17:44;26.70;1.00
46490;DHT22;32204;49.160;8.580;2023-05-28T14:20:10;26.50;1.00
46490;DHT22;32204;49.160;8.580;2023-05-28T14:22:36;26.50;1.00
46490;DHT22;32204;49.160;8.580;2023-05-28T14:25:02;26.40;1.00
46490;DHT22;32204;49.160;8.580;2023-05-28T14:27:27;26.60;1.00
46490;DHT22;32204;49.160;8.580;2023-05-28T14:29:53;26.70;1.00
46490;DHT22;32204;49.160;8.580;2023-05-28T14:32:18;26.70;1.00
46490;DHT22;32204;49.160;8.580;2023-05-28T14:34:44;26.70;1.00
46490;DHT22;32204;49.160;8.580;2023-05-28T14:37:10;26.90;1.00
46490;DHT22;32204;49.160;8.580;2023-05-28T14:39:35;27.00;1.00
46490;DHT22;32204;49.160;8.580;2023-05-28T14:42:01;27.10;1.00
46490;DHT22;32204;49.160;8.580;2023-05-28T14:44:28;27.10;1.00
46490;DHT22;32204;49.160;8.580;2023-05-28T14:46:53;27.10;1.00
46490;DHT22;32204;49.160;8.580;2023-05-28T14:49:19;27.20;1.00
46490;DHT22;32204;49.160;8.580;2023-05-28T14:51:45;27.10;1.00
46490;DHT22;32204;49.160;8.580;2023-05-28T14:54:10;27.10;1.00
46490;DHT22;32204;49.160;8.580;2023-05-28T14:56:36;27.00;1.00
46490;DHT22;32204;49.160;8.580;2023-05-28T14:59:01;27.00;1.00
46490;DHT22;32204;49.160;8.580;2023-05-28T15:01:27;26.90;1.00
46490;DHT22;32204;49.160;8.580;2023-05-28T15:03:53;27.10;1.00
46490;DHT22;32204;49.160;8.580;2023-05-28T15:06:18;26.80;1.00
46490;DHT22;32204;49.160;8.580;2023-05-28T15:08:44;26.80;1.00
46490;DHT22;32204;49.160;8.580;2023-05-28T15:11:13;27.00;1.00
46490;DHT22;32204;49.160;8.580;2023-05-28T15:13:39;27.30;1.00
46490;DHT22;32204;49.160;8.580;2023-05-28T15:16:06;27.40;1.00
46490;DHT22;32204;49.160;8.580;2023-05-28T15:18:32;27.30;1.00
46490;DHT22;32204;49.160;8.580;2023-05-28T15:20:57;27.20;1.00
46490;DHT22;32204;49.160;8.580;2023-05-28T15:23:23;27.10;1.00
46490;DHT22;32204;49.160;8.580;2023-05-28T15:25:49;27.30;1.00
46490;DHT22;32204;49.160;8.580;2023-05-28T15:28:14;27.20;1.00
46490;DHT22;32204;49.160;8.580;2023-05-28T15:30:40;27.10;1.00
46490;DHT22;32204;49.160;8.580;2023-05-28T15:33:06;27.10;1.00
46490;DHT22;32204;49.160;8.580;2023-05-28T15:35:33;27.30;1.00
46490;DHT22;32204;49.160;8.580;2023-05-28T15:38:00;27.20;1.00
46490;DHT22;32204;49.160;8.580;2023-05-28T15:40:26;27.00;1.00
46490;DHT22;32204;49.160;8.580;2023-05-28T15:42:53;26.80;1.00
46490;DHT22;32204;49.160;8.580;2023-05-28T15:45:21;27.00;1.00